This is the latest recevied weather packets stored in our database for station/object EA1IWF-10. If no packets are shown the sender has not sent any weather packets the latest 10 day(s).
| Time | Temp. | Humidity | Pressure | Rain* | Wind** | Luminosity | Snow |
|---|---|---|---|---|---|---|---|
| 1777575366 | 20.56° C | 47% | 1020.7 hPa | - | - | - | - |
| 1777574465 | 20.56° C | 44% | 1020.6 hPa | - | - | - | - |
| 1777573564 | 21.11° C | 43% | 1020.4 hPa | - | - | - | - |
| 1777572664 | 21.67° C | 41% | 1020.4 hPa | - | - | - | - |
| 1777571763 | 21.67° C | 40% | 1020.4 hPa | - | - | - | - |
| 1777570862 | 22.78° C | 39% | 1020.4 hPa | - | - | - | - |
| 1777569961 | 22.78° C | 38% | 1020.4 hPa | - | - | - | - |
| 1777569060 | 22.78° C | 39% | 1020.4 hPa | - | - | - | - |
| 1777568160 | 23.33° C | 39% | 1020.4 hPa | - | - | - | - |
| 1777567259 | 24.44° C | 38% | 1020.4 hPa | - | - | - | - |
| 1777566358 | 26.11° C | 34% | 1020.3 hPa | - | - | - | - |
| 1777565458 | 31.67° C | 27% | 1020.2 hPa | - | - | - | - |
| 1777564556 | 26.11° C | 36% | 1020.2 hPa | - | - | - | - |
| 1777563655 | 24.44° C | 37% | 1020.2 hPa | - | - | - | - |
| 1777562755 | 26.67° C | 34% | 1020.4 hPa | - | - | - | - |
| 1777561854 | 26.11° C | 34% | 1020.3 hPa | - | - | - | - |
| 1777560953 | 31.67° C | 27% | 1020.4 hPa | - | - | - | - |
| 1777560052 | 31.67° C | 28% | 1020.6 hPa | - | - | - | - |
| 1777559151 | 24.44° C | 38% | 1020.6 hPa | - | - | - | - |
| 1777558251 | 25.56° C | 37% | 1020.7 hPa | - | - | - | - |
| 1777557350 | 23.33° C | 41% | 1020.8 hPa | - | - | - | - |
| 1777556449 | 22.78° C | 43% | 1020.7 hPa | - | - | - | - |
| 1777555548 | 21.67° C | 46% | 1020.8 hPa | - | - | - | - |
| 1777554647 | 21.67° C | 46% | 1020.7 hPa | - | - | - | - |
| 1777409326 | 17.22° C | 64% | 1013.5 hPa | - | - | - | - |
* Rain since midnight (hover to see other rain measurements)
** Current wind speed in m/s (hover to see current wind gust speed)